createdAt,value
2018-10-01T00:00:05.960Z,99.99
2018-10-01T00:01:06.539Z,99.99
2018-10-01T00:02:07.120Z,99.99
2018-10-01T00:03:07.700Z,99.99
2018-10-01T00:04:08.284Z,99.99
2018-10-01T00:05:08.861Z,99.99
2018-10-01T00:06:09.492Z,99.99
2018-10-01T00:07:10.070Z,99.99
2018-10-01T00:08:10.653Z,99.99
2018-10-01T00:09:11.274Z,99.99
2018-10-01T00:10:11.853Z,99.99
2018-10-01T00:11:12.581Z,99.99
2018-10-01T00:12:13.210Z,99.99
2018-10-01T00:13:13.792Z,99.99
2018-10-01T00:14:14.371Z,99.99
2018-10-01T00:15:14.951Z,99.99
2018-10-01T00:16:15.528Z,99.99
2018-10-01T00:17:16.107Z,99.99
2018-10-01T00:18:16.685Z,99.99
2018-10-01T00:19:17.268Z,99.99
2018-10-01T00:20:17.889Z,99.99
2018-10-01T00:21:18.471Z,99.99
2018-10-01T00:22:19.049Z,99.99
2018-10-01T00:23:19.628Z,99.99
2018-10-01T00:24:20.211Z,99.99
2018-10-01T00:25:20.791Z,99.99
2018-10-01T00:26:21.371Z,99.99
2018-10-01T00:27:21.955Z,99.99
2018-10-01T00:28:22.579Z,99.99
2018-10-01T00:29:23.161Z,99.99
2018-10-01T00:30:23.781Z,99.99
2018-10-01T00:31:24.412Z,99.99
2018-10-01T00:32:24.990Z,99.99
2018-10-01T00:33:25.618Z,99.99
2018-10-01T00:34:26.200Z,99.99
2018-10-01T00:35:26.781Z,99.99
2018-10-01T00:36:27.362Z,99.99
2018-10-01T00:37:27.983Z,99.99
2018-10-01T00:38:28.579Z,99.99
2018-10-01T00:39:29.176Z,99.99
2018-10-01T00:40:29.754Z,99.99
2018-10-01T00:41:30.334Z,99.99
2018-10-01T00:42:30.917Z,99.99
2018-10-01T00:43:31.493Z,99.99
2018-10-01T00:44:32.074Z,99.99
2018-10-01T00:45:32.708Z,99.99
2018-10-01T00:46:33.326Z,99.99
2018-10-01T00:47:33.908Z,99.99
2018-10-01T00:48:34.488Z,99.99
2018-10-01T00:49:35.064Z,99.99
2018-10-01T00:50:35.697Z,99.99
2018-10-01T00:51:36.316Z,99.99
2018-10-01T00:52:36.897Z,99.99
2018-10-01T00:53:37.476Z,99.99
2018-10-01T00:54:38.057Z,99.99
2018-10-01T00:55:38.676Z,99.99
2018-10-01T00:56:39.256Z,99.99
2018-10-01T00:57:39.985Z,99.99
2018-10-01T00:58:40.572Z,99.99
2018-10-01T00:59:41.187Z,99.99
2018-10-01T01:00:41.772Z,99.99
2018-10-01T01:01:42.396Z,99.99
2018-10-01T01:02:42.975Z,99.99
2018-10-01T01:03:43.604Z,99.99
2018-10-01T01:04:44.182Z,99.99
2018-10-01T01:05:44.762Z,99.99
2018-10-01T01:06:45.340Z,99.99
2018-10-01T01:07:45.921Z,99.99
2018-10-01T01:08:46.542Z,99.99
2018-10-01T01:09:47.126Z,99.99
2018-10-01T01:10:47.704Z,99.99
2018-10-01T01:11:48.384Z,99.99
2018-10-01T01:12:48.965Z,99.99
2018-10-01T01:13:49.593Z,99.99
2018-10-01T01:14:50.173Z,99.99
2018-10-01T01:15:50.756Z,99.99
2018-10-01T01:16:51.332Z,99.99
2018-10-01T01:17:51.913Z,99.99
2018-10-01T01:18:52.493Z,99.99
2018-10-01T01:19:53.072Z,99.99
2018-10-01T01:20:53.701Z,99.99
2018-10-01T01:21:54.331Z,99.99
2018-10-01T01:22:54.910Z,99.99
2018-10-01T01:23:55.490Z,99.99
2018-10-01T01:24:56.070Z,99.99
2018-10-01T01:25:56.692Z,99.99
2018-10-01T01:26:57.274Z,99.99
2018-10-01T01:27:57.853Z,99.99
2018-10-01T01:28:58.432Z,99.99
2018-10-01T01:29:59.014Z,99.99
2018-10-01T01:30:59.639Z,99.99
2018-10-01T01:32:00.217Z,99.99
2018-10-01T01:33:00.796Z,99.99
2018-10-01T01:34:01.384Z,99.99
2018-10-01T01:35:01.963Z,99.99
2018-10-01T01:36:02.543Z,99.99
2018-10-01T01:37:03.171Z,99.99
2018-10-01T01:38:03.752Z,99.99
2018-10-01T01:39:04.332Z,99.99
2018-10-01T01:40:04.913Z,99.99
2018-10-01T01:41:05.492Z,99.99
2018-10-01T01:42:06.125Z,99.99
2018-10-01T01:43:06.704Z,99.99
2018-10-01T01:44:07.286Z,99.99
2018-10-01T01:45:07.868Z,99.99
2018-10-01T01:46:08.537Z,99.99
2018-10-01T01:47:09.117Z,99.99
2018-10-01T01:48:09.701Z,99.99
2018-10-01T01:49:10.280Z,99.99
2018-10-01T01:50:10.902Z,99.99
2018-10-01T01:51:11.479Z,99.99
2018-10-01T01:52:12.110Z,99.99
2018-10-01T01:53:12.692Z,99.99
2018-10-01T01:54:13.274Z,99.99
2018-10-01T01:55:13.858Z,99.99
2018-10-01T01:56:14.436Z,99.99
2018-10-01T01:57:15.021Z,99.99
2018-10-01T01:58:15.592Z,99.99
2018-10-01T01:59:16.172Z,99.99
2018-10-01T02:00:16.801Z,99.99
2018-10-01T02:01:17.380Z,99.99
2018-10-01T02:02:17.960Z,99.99
2018-10-01T02:03:18.539Z,99.99
2018-10-01T02:04:19.160Z,99.99
2018-10-01T02:05:19.789Z,99.99
2018-10-01T02:06:20.369Z,99.99
2018-10-01T02:07:20.950Z,99.99
2018-10-01T02:08:21.531Z,99.99
2018-10-01T02:09:22.112Z,99.99
2018-10-01T02:10:22.741Z,99.99
2018-10-01T02:11:23.320Z,99.99
2018-10-01T02:12:23.899Z,99.99
2018-10-01T02:13:24.477Z,99.99
2018-10-01T02:14:25.060Z,99.99
2018-10-01T02:15:25.682Z,99.99
2018-10-01T02:16:26.310Z,99.99
2018-10-01T02:17:26.891Z,99.99
2018-10-01T02:18:27.471Z,99.99
2018-10-01T02:19:28.052Z,99.99
2018-10-01T02:20:28.632Z,99.99
2018-10-01T02:21:29.212Z,99.99
2018-10-01T02:22:29.789Z,99.99
2018-10-01T02:23:30.370Z,99.99
2018-10-01T02:24:30.999Z,99.99
2018-10-01T02:25:31.577Z,99.99
2018-10-01T02:26:32.161Z,99.99
2018-10-01T02:27:32.738Z,99.99
2018-10-01T02:28:33.367Z,99.99
2018-10-01T02:29:33.949Z,99.99
2018-10-01T02:30:34.581Z,99.99
2018-10-01T02:31:35.154Z,99.99
2018-10-01T02:32:35.732Z,99.99
2018-10-01T02:33:36.310Z,99.99
2018-10-01T02:34:36.890Z,99.99
2018-10-01T02:35:37.470Z,99.99
2018-10-01T02:36:38.097Z,99.99
2018-10-01T02:37:38.674Z,99.99
2018-10-01T02:38:39.295Z,99.99
2018-10-01T02:39:40.024Z,99.99
2018-10-01T02:40:40.656Z,99.99
2018-10-01T02:41:41.274Z,99.99
2018-10-01T02:42:41.852Z,99.99
2018-10-01T02:43:42.431Z,99.99
2018-10-01T02:44:43.012Z,99.99
2018-10-01T02:45:43.639Z,99.99
2018-10-01T02:46:44.175Z,99.99
2018-10-01T02:47:44.824Z,99.99
2018-10-01T02:48:45.374Z,99.99
2018-10-01T02:49:45.954Z,99.99
2018-10-01T02:50:46.532Z,99.99
2018-10-01T02:51:47.110Z,99.99
2018-10-01T02:52:47.890Z,99.99
2018-10-01T02:53:48.468Z,99.99
2018-10-01T02:54:49.101Z,99.99
2018-10-01T02:55:49.682Z,99.99
2018-10-01T02:56:50.268Z,99.99
2018-10-01T02:57:50.888Z,99.99
2018-10-01T02:58:51.467Z,99.99
2018-10-01T02:59:52.097Z,99.99
2018-10-01T03:00:52.677Z,99.99
2018-10-01T03:01:53.258Z,99.99
2018-10-01T03:02:53.837Z,99.99
2018-10-01T03:03:54.415Z,99.99
2018-10-01T03:04:54.996Z,99.99
2018-10-01T03:05:55.577Z,99.99
2018-10-01T03:06:56.198Z,99.99
2018-10-01T03:07:56.776Z,99.99
2018-10-01T03:08:57.405Z,99.99
2018-10-01T03:09:57.985Z,99.99
2018-10-01T03:10:58.563Z,99.99
2018-10-01T03:11:59.143Z,99.99
2018-10-01T03:12:59.722Z,99.99
2018-10-01T03:14:00.300Z,99.99
2018-10-01T03:15:00.879Z,99.99
2018-10-01T03:16:01.457Z,99.99
2018-10-01T03:17:02.098Z,99.99
2018-10-01T03:18:02.715Z,99.99
2018-10-01T03:19:03.293Z,99.99
2018-10-01T03:20:03.873Z,99.99
2018-10-01T03:21:04.476Z,99.99
2018-10-01T03:22:05.031Z,99.99
2018-10-01T03:23:05.611Z,99.99
2018-10-01T03:24:06.193Z,99.99
2018-10-01T03:25:06.825Z,99.99
2018-10-01T03:26:07.402Z,99.99
2018-10-01T03:27:07.981Z,99.99
2018-10-01T03:28:08.560Z,99.99
2018-10-01T03:29:09.142Z,99.99
2018-10-01T03:30:09.721Z,99.99
2018-10-01T03:31:10.304Z,99.99
2018-10-01T03:32:10.883Z,99.99
2018-10-01T03:33:11.460Z,99.99
2018-10-01T03:34:12.090Z,99.99
2018-10-01T03:35:12.715Z,99.99
2018-10-01T03:36:13.293Z,99.99
2018-10-01T03:37:13.872Z,99.99
2018-10-01T03:38:14.451Z,99.99
2018-10-01T03:39:15.031Z,99.99
2018-10-01T03:40:15.671Z,99.99
2018-10-01T03:41:16.237Z,99.99
2018-10-01T03:42:16.817Z,99.99
2018-10-01T03:43:17.396Z,99.99
2018-10-01T03:44:17.980Z,99.99
2018-10-01T03:45:18.651Z,99.99
2018-10-01T03:46:19.226Z,99.99
2018-10-01T03:47:19.805Z,99.99
2018-10-01T03:48:20.387Z,99.99
2018-10-01T03:49:21.015Z,99.99
2018-10-01T03:50:21.594Z,99.99
2018-10-01T03:51:22.173Z,99.99
2018-10-01T03:52:22.751Z,99.99
2018-10-01T03:53:23.331Z,99.99
2018-10-01T03:54:23.911Z,99.99
2018-10-01T03:55:24.494Z,99.99
2018-10-01T03:56:25.078Z,99.99
2018-10-01T03:57:25.654Z,99.99
2018-10-01T03:58:26.233Z,99.99
2018-10-01T03:59:26.907Z,99.99
2018-10-01T04:00:27.530Z,99.99
2018-10-01T04:01:28.108Z,99.99
2018-10-01T04:02:28.688Z,99.99
2018-10-01T04:03:29.270Z,99.99
2018-10-01T04:04:29.898Z,99.99
2018-10-01T04:05:30.479Z,99.99
2018-10-01T04:06:31.061Z,99.99
2018-10-01T04:07:31.689Z,99.99
2018-10-01T04:08:32.267Z,99.99
2018-10-01T04:09:32.845Z,99.99
2018-10-01T04:10:33.476Z,99.99
2018-10-01T04:11:34.003Z,99.99
2018-10-01T04:12:34.583Z,99.99
2018-10-01T04:13:35.163Z,99.99
2018-10-01T04:14:35.744Z,99.99
2018-10-01T04:15:36.324Z,99.99
2018-10-01T04:16:36.901Z,99.99
2018-10-01T04:17:37.489Z,99.99
2018-10-01T04:18:38.100Z,99.99
2018-10-01T04:19:38.679Z,99.99
2018-10-01T04:20:39.257Z,99.99
2018-10-01T04:21:39.838Z,99.99
2018-10-01T04:22:40.542Z,99.99
2018-10-01T04:23:41.099Z,99.99
2018-10-01T04:24:41.680Z,99.99
2018-10-01T04:25:42.260Z,99.99
2018-10-01T04:26:42.891Z,99.99
2018-10-01T04:27:43.470Z,99.99
2018-10-01T04:28:44.050Z,99.99
2018-10-01T04:29:44.631Z,99.99
2018-10-01T04:30:45.209Z,99.99
2018-10-01T04:31:45.790Z,99.99
2018-10-01T04:32:46.369Z,99.99
2018-10-01T04:33:46.949Z,99.99
2018-10-01T04:34:47.529Z,99.99
2018-10-01T04:35:48.106Z,99.99
2018-10-01T04:36:48.684Z,99.99
2018-10-01T04:37:49.314Z,99.99
2018-10-01T04:38:49.893Z,99.99
2018-10-01T04:39:50.478Z,99.99
2018-10-01T04:40:51.185Z,99.99
2018-10-01T04:41:51.631Z,99.99
2018-10-01T04:42:52.212Z,99.99
2018-10-01T04:43:52.884Z,99.99
2018-10-01T04:44:53.466Z,99.99
2018-10-01T04:45:54.196Z,99.99
2018-10-01T04:46:54.864Z,99.99
2018-10-01T04:47:55.355Z,99.99
2018-10-01T04:48:55.933Z,99.99
2018-10-01T04:49:56.513Z,99.99
2018-10-01T04:50:57.092Z,99.99
2018-10-01T04:51:57.670Z,99.99
2018-10-01T04:52:58.251Z,99.99
2018-10-01T04:53:58.831Z,99.99
2018-10-01T04:54:59.409Z,99.99
2018-10-01T04:55:59.989Z,99.99
2018-10-01T04:57:00.566Z,99.99
2018-10-01T04:58:01.239Z,99.99
2018-10-01T04:59:01.795Z,99.99
2018-10-01T05:00:02.303Z,99.99
2018-10-01T05:01:02.931Z,99.99
2018-10-01T05:02:04.461Z,99.99
2018-10-01T05:03:05.091Z,99.99
2018-10-01T05:04:05.671Z,99.99
2018-10-01T05:05:06.249Z,99.99
2018-10-01T05:06:06.856Z,99.99
2018-10-01T05:07:07.408Z,99.99
2018-10-01T05:08:07.987Z,99.99
2018-10-01T05:09:08.566Z,99.99
2018-10-01T05:10:09.189Z,99.99
2018-10-01T05:11:09.769Z,99.99
2018-10-01T05:12:10.371Z,99.99
2018-10-01T05:13:10.931Z,99.99
2018-10-01T05:14:11.509Z,99.99
2018-10-01T05:15:12.092Z,99.99
2018-10-01T05:16:12.712Z,99.99
2018-10-01T05:17:13.292Z,99.99
2018-10-01T05:18:13.921Z,99.99
2018-10-01T05:19:14.502Z,99.99
2018-10-01T05:20:15.079Z,99.99
2018-10-01T05:21:15.657Z,99.99
2018-10-01T05:22:16.235Z,99.99
2018-10-01T05:23:16.865Z,99.99
2018-10-01T05:24:17.496Z,99.99
2018-10-01T05:25:18.076Z,99.99
2018-10-01T05:26:18.654Z,99.99
2018-10-01T05:27:19.235Z,99.99
2018-10-01T05:28:19.814Z,99.99
2018-10-01T05:29:20.394Z,99.99
2018-10-01T05:30:21.076Z,99.99
2018-10-01T05:31:21.797Z,99.99
2018-10-01T05:32:22.372Z,99.99
2018-10-01T05:33:22.950Z,99.99
2018-10-01T05:34:23.530Z,99.99
2018-10-01T05:35:24.109Z,99.99
2018-10-01T05:36:24.791Z,99.99
2018-10-01T05:37:25.378Z,99.99
2018-10-01T05:38:25.953Z,99.99
2018-10-01T05:39:26.536Z,99.99
2018-10-01T05:40:27.112Z,99.99
2018-10-01T05:41:27.744Z,99.99
2018-10-01T05:42:28.361Z,99.99
2018-10-01T05:43:28.942Z,99.99
2018-10-01T05:44:29.521Z,99.99
2018-10-01T05:45:30.104Z,99.99
2018-10-01T05:46:30.682Z,99.99
2018-10-01T05:47:31.270Z,99.99
2018-10-01T05:48:31.850Z,99.99
2018-10-01T05:49:32.432Z,99.99
2018-10-01T05:50:33.063Z,99.99
2018-10-01T05:51:33.692Z,99.99
2018-10-01T05:52:34.271Z,99.99
2018-10-01T05:53:34.853Z,99.99
2018-10-01T05:54:35.483Z,99.99
2018-10-01T05:55:36.081Z,99.99
2018-10-01T05:56:36.645Z,99.99
2018-10-01T05:57:37.239Z,99.99
2018-10-01T05:58:37.843Z,99.99
2018-10-01T05:59:38.428Z,99.99
2018-10-01T06:00:39.006Z,99.99
2018-10-01T06:01:39.581Z,99.99
2018-10-01T06:02:40.160Z,99.99
2018-10-01T06:03:40.741Z,99.99
2018-10-01T06:04:41.326Z,99.99
2018-10-01T06:05:41.953Z,99.99
2018-10-01T06:06:42.575Z,99.99
2018-10-01T06:07:43.153Z,99.99
2018-10-01T06:08:43.732Z,99.99
2018-10-01T06:09:44.313Z,99.99
2018-10-01T06:10:44.941Z,99.99
2018-10-01T06:11:45.624Z,99.99
2018-10-01T06:12:46.204Z,99.99
2018-10-01T06:13:46.779Z,99.99
2018-10-01T06:14:47.359Z,99.99
2018-10-01T06:15:47.939Z,99.99
2018-10-01T06:16:48.517Z,99.99
2018-10-01T06:17:49.138Z,99.99
2018-10-01T06:18:49.724Z,99.99
2018-10-01T06:19:50.299Z,99.99
2018-10-01T06:20:50.878Z,99.99
2018-10-01T06:21:51.458Z,99.99
2018-10-01T06:22:52.047Z,99.99
2018-10-01T06:23:52.616Z,99.99
2018-10-01T06:24:53.196Z,99.99
2018-10-01T06:25:53.776Z,99.99
2018-10-01T06:26:54.396Z,99.99
2018-10-01T06:27:54.975Z,99.99
2018-10-01T06:28:55.606Z,99.99
2018-10-01T06:29:56.234Z,99.99
2018-10-01T06:30:56.815Z,99.99
2018-10-01T06:31:57.397Z,99.99
2018-10-01T06:32:58.071Z,99.99
2018-10-01T06:33:58.649Z,99.99
2018-10-01T06:34:59.229Z,99.99
2018-10-01T06:35:59.806Z,99.99
2018-10-01T06:37:00.389Z,99.99
2018-10-01T06:38:01.006Z,99.99
2018-10-01T06:39:01.552Z,99.99
2018-10-01T06:40:02.127Z,99.99
2018-10-01T06:41:02.710Z,99.99
2018-10-01T06:42:03.342Z,99.99
2018-10-01T06:43:03.889Z,99.99
2018-10-01T06:44:04.443Z,99.99
2018-10-01T06:45:05.021Z,99.99
2018-10-01T06:46:05.600Z,99.99
2018-10-01T06:47:06.231Z,99.99
2018-10-01T06:48:06.809Z,99.99
2018-10-01T06:49:07.439Z,99.99
2018-10-01T06:50:08.023Z,99.99
2018-10-01T06:51:08.682Z,99.99
2018-10-01T06:52:09.232Z,99.99
2018-10-01T06:53:09.810Z,99.99
2018-10-01T06:54:10.389Z,99.99
2018-10-01T06:55:10.971Z,99.99
2018-10-01T06:56:11.594Z,99.99
2018-10-01T06:57:12.170Z,99.99
2018-10-01T06:58:12.751Z,99.99
2018-10-01T06:59:13.330Z,99.99
2018-10-01T07:00:13.909Z,99.99
2018-10-01T07:01:14.497Z,99.99
2018-10-01T07:02:15.069Z,99.99
2018-10-01T07:03:15.649Z,99.99
2018-10-01T07:04:16.229Z,99.99
2018-10-01T07:05:16.859Z,99.99
2018-10-01T07:06:17.493Z,99.99
2018-10-01T07:07:18.158Z,99.99
2018-10-01T07:08:18.737Z,99.99
2018-10-01T07:09:19.317Z,99.99
2018-10-01T07:10:19.893Z,99.99
2018-10-01T07:11:20.516Z,99.99
2018-10-01T07:12:21.052Z,99.99
2018-10-01T07:13:21.633Z,99.99
2018-10-01T07:14:22.213Z,99.99
2018-10-01T07:15:22.794Z,99.99
2018-10-01T07:16:23.424Z,99.99
2018-10-01T07:17:24.090Z,99.99
2018-10-01T07:18:24.528Z,99.99
2018-10-01T07:19:25.108Z,99.99
2018-10-01T07:20:25.685Z,99.99
2018-10-01T07:21:26.264Z,99.99
2018-10-01T07:22:26.846Z,99.99
2018-10-01T07:23:27.459Z,99.99
2018-10-01T07:24:28.047Z,99.99
2018-10-01T07:25:28.676Z,99.99
2018-10-01T07:26:29.256Z,99.99
2018-10-01T07:27:29.836Z,99.99
2018-10-01T07:28:30.416Z,99.99
2018-10-01T07:29:31.048Z,99.99
2018-10-01T07:30:31.629Z,99.99
2018-10-01T07:31:32.250Z,99.99
2018-10-01T07:32:32.827Z,99.99
2018-10-01T07:33:33.405Z,99.99
2018-10-01T07:34:33.985Z,99.99
2018-10-01T07:35:34.565Z,99.99
2018-10-01T07:36:35.145Z,99.99
2018-10-01T07:37:35.723Z,99.99
2018-10-01T07:38:36.305Z,99.99
2018-10-01T07:39:36.977Z,99.99
2018-10-01T07:40:37.556Z,99.99
2018-10-01T07:41:38.188Z,99.99
2018-10-01T07:42:38.808Z,99.99
2018-10-01T07:43:39.386Z,99.99
2018-10-01T07:44:39.965Z,99.99
2018-10-01T07:45:40.593Z,99.99
2018-10-01T07:46:41.228Z,99.99
2018-10-01T07:47:41.841Z,99.99
2018-10-01T07:48:42.420Z,99.99
2018-10-01T07:49:42.997Z,99.99
2018-10-01T07:50:43.674Z,99.99
2018-10-01T07:51:44.204Z,99.99
2018-10-01T07:52:44.803Z,99.99
2018-10-01T07:53:45.406Z,99.99
2018-10-01T07:54:45.985Z,99.99
2018-10-01T07:55:46.565Z,99.99
2018-10-01T07:56:47.143Z,99.99
2018-10-01T07:57:47.923Z,99.99
2018-10-01T07:58:48.501Z,99.99
2018-10-01T07:59:49.193Z,99.99
2018-10-01T08:00:49.665Z,99.99
2018-10-01T08:01:50.291Z,99.99
2018-10-01T08:02:50.877Z,99.99
2018-10-01T08:03:51.452Z,99.99
2018-10-01T08:04:52.031Z,99.99
2018-10-01T08:05:52.609Z,99.99
2018-10-01T08:06:53.191Z,99.99
2018-10-01T08:07:53.767Z,99.99
2018-10-01T08:08:54.446Z,99.99
2018-10-01T08:09:55.023Z,99.99
2018-10-01T08:10:55.601Z,99.99
2018-10-01T08:11:56.181Z,99.99
2018-10-01T08:12:56.759Z,99.99
2018-10-01T08:13:57.355Z,99.99
2018-10-01T08:14:57.958Z,99.99
2018-10-01T08:15:58.535Z,99.99
2018-10-01T08:16:59.115Z,99.99
2018-10-01T08:17:59.695Z,99.99
2018-10-01T08:19:00.323Z,99.99
2018-10-01T08:20:00.916Z,99.99
2018-10-01T08:21:01.523Z,99.99
2018-10-01T08:22:02.102Z,99.99
2018-10-01T08:23:02.678Z,99.99
2018-10-01T08:24:03.258Z,99.99
2018-10-01T08:25:03.889Z,99.99
2018-10-01T08:26:04.570Z,99.99
2018-10-01T08:27:05.099Z,99.99
2018-10-01T08:28:05.728Z,99.99
2018-10-01T08:29:06.376Z,99.99
2018-10-01T08:30:06.924Z,99.99
2018-10-01T08:31:07.502Z,99.99
2018-10-01T08:32:08.147Z,99.99
2018-10-01T08:33:08.712Z,99.99
2018-10-01T08:34:09.292Z,99.99
2018-10-01T08:35:09.885Z,99.99
2018-10-01T08:36:10.447Z,99.99
2018-10-01T08:37:11.079Z,99.99
2018-10-01T08:38:11.747Z,99.99
2018-10-01T08:39:12.276Z,99.99
2018-10-01T08:40:12.854Z,99.99
2018-10-01T08:41:13.511Z,99.99
2018-10-01T08:42:14.012Z,99.99
2018-10-01T08:43:14.641Z,99.99
2018-10-01T08:44:15.294Z,99.99
2018-10-01T08:45:15.799Z,99.99
2018-10-01T08:46:16.429Z,99.99
2018-10-01T08:47:17.093Z,99.99
2018-10-01T08:48:17.587Z,99.99
2018-10-01T08:49:18.164Z,99.99
2018-10-01T08:50:18.769Z,99.99
2018-10-01T08:51:19.323Z,99.99
2018-10-01T08:52:19.951Z,99.99
2018-10-01T08:53:20.562Z,99.99
2018-10-01T08:54:21.113Z,99.99
2018-10-01T08:55:21.693Z,99.99
2018-10-01T08:56:22.388Z,99.99
2018-10-01T08:57:22.901Z,99.99
2018-10-01T08:58:23.479Z,99.99
2018-10-01T08:59:24.147Z,99.99
2018-10-01T09:00:24.692Z,99.99
2018-10-01T09:01:25.425Z,99.99
2018-10-01T09:02:26.065Z,99.99
2018-10-01T09:03:26.624Z,99.99
2018-10-01T09:04:27.201Z,99.99
2018-10-01T09:05:27.968Z,99.99
2018-10-01T09:06:28.510Z,99.99
2018-10-01T09:07:29.091Z,99.99
2018-10-01T09:08:29.683Z,99.99
2018-10-01T09:09:30.251Z,99.99
2018-10-01T09:10:30.831Z,99.99
2018-10-01T09:11:31.463Z,99.99
2018-10-01T09:12:31.992Z,99.99
2018-10-01T09:13:32.663Z,99.99
2018-10-01T09:14:33.306Z,99.99
2018-10-01T09:15:33.872Z,99.99
2018-10-01T09:16:34.452Z,99.99
2018-10-01T09:17:35.934Z,99.99
2018-10-01T09:18:36.461Z,99.99
2018-10-01T09:19:37.049Z,99.99
2018-10-01T09:20:37.711Z,99.99
2018-10-01T09:21:38.296Z,99.99
2018-10-01T09:22:38.872Z,99.99
2018-10-01T09:23:39.463Z,99.99
2018-10-01T09:24:40.029Z,99.99
2018-10-01T09:25:40.606Z,99.99
2018-10-01T09:26:41.337Z,99.99
2018-10-01T09:27:41.762Z,99.99
2018-10-01T09:28:42.342Z,99.99
2018-10-01T09:29:42.972Z,99.99
2018-10-01T09:30:43.556Z,99.99
2018-10-01T09:31:44.128Z,99.99
2018-10-01T09:32:44.708Z,99.99
2018-10-01T09:33:45.339Z,99.99
2018-10-01T09:34:45.920Z,99.99
2018-10-01T09:35:46.497Z,99.99
2018-10-01T09:36:47.125Z,99.99
2018-10-01T09:37:47.707Z,99.99
2018-10-01T09:38:48.285Z,99.99
2018-10-01T09:39:48.868Z,99.99
2018-10-01T09:40:49.447Z,99.99
2018-10-01T09:41:50.076Z,99.99
2018-10-01T09:42:50.658Z,99.99
2018-10-01T09:43:51.235Z,99.99
2018-10-01T09:44:51.866Z,99.99
2018-10-01T09:45:52.446Z,99.99
2018-10-01T09:46:53.026Z,99.99
2018-10-01T09:47:53.640Z,99.99
2018-10-01T09:48:54.188Z,99.99
2018-10-01T09:49:54.814Z,99.99
2018-10-01T09:50:55.387Z,99.99
2018-10-01T09:51:56.019Z,99.99
2018-10-01T09:52:56.556Z,99.99
2018-10-01T09:53:57.188Z,99.99
2018-10-01T09:54:57.767Z,99.99
2018-10-01T09:55:58.372Z,99.99
2018-10-01T09:56:58.974Z,99.99
2018-10-01T09:57:59.604Z,99.99
2018-10-01T09:59:00.145Z,99.99
2018-10-01T10:00:00.759Z,99.99
2018-10-01T10:01:01.391Z,99.99
2018-10-01T10:02:02.006Z,99.99
2018-10-01T10:03:02.551Z,99.99
2018-10-01T10:04:03.217Z,99.99
2018-10-01T10:05:03.712Z,99.99
2018-10-01T10:06:04.290Z,99.99
2018-10-01T10:07:05.720Z,99.99
2018-10-01T10:08:06.354Z,99.99
2018-10-01T10:09:06.888Z,99.99
2018-10-01T10:10:07.519Z,99.40
2018-10-01T10:11:08.087Z,99.98
2018-10-01T10:12:08.672Z,99.99
2018-10-01T10:13:09.287Z,99.79
2018-10-01T10:14:09.958Z,99.99
2018-10-01T10:15:10.496Z,99.50
2018-10-01T10:16:11.158Z,99.99
2018-10-01T10:17:11.654Z,99.99
2018-10-01T10:18:12.234Z,99.50
2018-10-01T10:19:12.862Z,99.99
2018-10-01T10:20:13.554Z,99.99
2018-10-01T10:21:14.025Z,99.99
2018-10-01T10:22:14.732Z,99.59
2018-10-01T10:23:15.187Z,99.02
2018-10-01T10:24:15.768Z,98.82
2018-10-01T10:25:16.350Z,97.81
2018-10-01T10:26:16.992Z,98.87
2018-10-01T10:27:17.511Z,99.64
2018-10-01T10:28:18.143Z,99.99
2018-10-01T10:29:18.771Z,99.99
2018-10-01T10:30:19.301Z,98.97
2018-10-01T10:31:19.883Z,98.10
2018-10-01T10:32:20.503Z,99.74
2018-10-01T10:33:21.044Z,99.99
2018-10-01T10:34:21.684Z,99.99
2018-10-01T10:35:22.305Z,99.99
2018-10-01T10:36:22.920Z,97.81
2018-10-01T10:37:23.502Z,97.14
2018-10-01T10:38:24.114Z,98.29
2018-10-01T10:39:24.694Z,98.97
2018-10-01T10:40:25.296Z,97.33
2018-10-01T10:41:25.879Z,98.39
2018-10-01T10:42:26.459Z,99.11
2018-10-01T10:43:27.039Z,99.99
2018-10-01T10:44:27.734Z,98.54
2018-10-01T10:45:28.299Z,99.07
2018-10-01T10:46:28.882Z,99.88
2018-10-01T10:47:29.458Z,99.02
2018-10-01T10:48:30.041Z,98.05
2018-10-01T10:49:30.617Z,98.54
2018-10-01T10:50:31.310Z,96.03
2018-10-01T10:51:31.829Z,96.22
2018-10-01T10:52:32.411Z,98.25
2018-10-01T10:53:32.990Z,98.73
2018-10-01T10:54:33.571Z,98.73
2018-10-01T10:55:34.153Z,99.69
2018-10-01T10:56:34.777Z,97.47
2018-10-01T10:57:35.352Z,98.92
2018-10-01T10:58:35.982Z,98.92
2018-10-01T10:59:36.563Z,99.60
2018-10-01T11:00:37.148Z,99.02
2018-10-01T11:01:37.728Z,99.98
2018-10-01T11:02:38.382Z,99.79
2018-10-01T11:03:38.928Z,99.60
2018-10-01T11:04:39.508Z,99.79
2018-10-01T11:05:40.093Z,99.79
2018-10-01T11:06:40.668Z,99.40
2018-10-01T11:07:41.299Z,99.99
2018-10-01T11:08:41.968Z,99.98
2018-10-01T11:09:42.509Z,99.98
2018-10-01T11:10:43.092Z,99.88
2018-10-01T11:11:43.673Z,99.69
2018-10-01T11:12:44.253Z,99.88
2018-10-01T11:13:44.836Z,98.25
2018-10-01T11:14:45.560Z,98.92
2018-10-01T11:15:46.048Z,97.47
2018-10-01T11:16:46.627Z,98.54
2018-10-01T11:17:47.272Z,98.82
2018-10-01T11:18:47.915Z,99.11
2018-10-01T11:19:48.469Z,98.92
2018-10-01T11:20:48.959Z,99.11
2018-10-01T11:21:49.573Z,99.21
2018-10-01T11:22:50.169Z,98.92
2018-10-01T11:23:50.690Z,98.25
2018-10-01T11:24:51.272Z,98.63
2018-10-01T11:25:51.860Z,98.44
2018-10-01T11:26:52.510Z,98.05
2018-10-01T11:27:53.140Z,98.58
2018-10-01T11:28:53.715Z,98.25
2018-10-01T11:29:54.279Z,98.39
2018-10-01T11:30:54.969Z,98.10
2018-10-01T11:31:55.955Z,98.58
2018-10-01T11:32:56.367Z,98.00
2018-10-01T11:33:56.944Z,98.20
2018-10-01T11:34:57.659Z,98.29
2018-10-01T11:35:58.158Z,97.33
2018-10-01T11:36:58.790Z,97.91
2018-10-01T11:37:59.371Z,97.52
2018-10-01T11:39:00.004Z,97.33
2018-10-01T11:40:00.534Z,97.33
2018-10-01T11:41:01.115Z,98.29
2018-10-01T11:42:01.695Z,97.04
2018-10-01T11:43:02.275Z,97.14
2018-10-01T11:44:02.857Z,97.24
2018-10-01T11:45:03.476Z,97.24
2018-10-01T11:46:04.018Z,97.42
2018-10-01T11:47:04.649Z,96.94
2018-10-01T11:48:05.733Z,97.33
2018-10-01T11:49:06.359Z,97.24
2018-10-01T11:50:06.941Z,97.04
2018-10-01T11:51:07.558Z,96.84
2018-10-01T11:52:08.104Z,96.84
2018-10-01T11:53:08.707Z,96.94
2018-10-01T11:54:09.314Z,97.14
2018-10-01T11:55:09.849Z,96.94
2018-10-01T11:56:10.532Z,96.94
2018-10-01T11:57:11.159Z,96.46
2018-10-01T11:58:11.733Z,95.21
2018-10-01T11:59:12.317Z,95.50
2018-10-01T12:00:12.898Z,96.36
2018-10-01T12:01:13.479Z,97.04
2018-10-01T12:02:14.061Z,97.14
2018-10-01T12:03:14.790Z,96.75
2018-10-01T12:04:15.413Z,97.04
2018-10-01T12:05:15.894Z,96.84
2018-10-01T12:06:16.473Z,97.14
2018-10-01T12:07:17.056Z,97.14
2018-10-01T12:08:17.683Z,92.60
2018-10-01T12:09:18.370Z,95.40
2018-10-01T12:10:18.905Z,96.56
2018-10-01T12:11:19.578Z,96.36
2018-10-01T12:12:20.244Z,94.92
2018-10-01T12:13:20.826Z,94.24
2018-10-01T12:14:21.408Z,95.69
2018-10-01T12:15:21.996Z,95.74
2018-10-01T12:16:22.569Z,90.63
2018-10-01T12:17:23.149Z,93.85
2018-10-01T12:18:23.732Z,95.16
2018-10-01T12:19:24.355Z,92.70
2018-10-01T12:20:24.940Z,94.96
2018-10-01T12:21:25.611Z,95.36
2018-10-01T12:22:26.099Z,95.16
2018-10-01T12:23:26.729Z,94.78
2018-10-01T12:24:27.309Z,94.87
2018-10-01T12:25:27.891Z,94.87
2018-10-01T12:26:28.470Z,94.82
2018-10-01T12:27:29.119Z,94.48
2018-10-01T12:28:29.633Z,95.45
2018-10-01T12:29:30.263Z,94.68
2018-10-01T12:30:30.846Z,94.39
2018-10-01T12:31:31.476Z,94.39
2018-10-01T12:32:32.057Z,94.20
2018-10-01T12:33:32.655Z,94.78
2018-10-01T12:34:33.313Z,94.96
2018-10-01T12:35:33.892Z,94.68
2018-10-01T12:36:34.472Z,94.96
2018-10-01T12:37:35.056Z,94.96
2018-10-01T12:38:35.682Z,94.96
2018-10-01T12:39:36.354Z,92.94
2018-10-01T12:40:36.882Z,94.39
2018-10-01T12:41:37.464Z,94.87
2018-10-01T12:42:38.161Z,94.78
2018-10-01T12:43:38.754Z,94.68
2018-10-01T12:44:39.337Z,93.81
2018-10-01T12:45:39.962Z,94.68
2018-10-01T12:46:40.504Z,94.48
2018-10-01T12:47:41.087Z,94.87
2018-10-01T12:48:41.707Z,94.78
2018-10-01T12:49:42.339Z,94.39
2018-10-01T12:50:42.922Z,92.08
2018-10-01T12:51:43.657Z,91.40
2018-10-01T12:52:44.160Z,93.23
2018-10-01T12:53:44.741Z,92.94
2018-10-01T12:54:45.372Z,92.36
2018-10-01T12:55:45.952Z,93.04
2018-10-01T12:56:46.537Z,92.80
2018-10-01T12:57:47.165Z,93.43
2018-10-01T12:58:47.731Z,92.12
2018-10-01T12:59:48.313Z,92.22